Weather History for Wilkerson Pass, CO

Change the Weather History Date:

Friday, November 29, 2013

  Actual Average (KAFF) Record (KAFF)
Temperature  
Mean Temperature 26 °F -  
Max Temperature 32 °F 44 °F 65 °F (2014)
Min Temperature 21 °F 22 °F 3 °F (2010)
Degree Days  
Heating Degree Days 38    
Moisture  
Dew Point 8 °F    
Average Humidity 47    
Maximum Humidity 59    
Minimum Humidity 37    
Precipitation  
Precipitation 0.00 in - - ()
Sea Level Pressure  
Sea Level Pressure 30.31 in    
Wind  
Wind Speed 10 mph (West)    
Max Wind Speed 15 mph    
Max Gust Speed 26 mph    
Visibility 10 miles    
Events      
Averages and records for this station are not official NWS values.
T = Trace of Precipitation, MM = Missing Value Source: NWS Daily Summary

Daily Weather History Graph

Daily Weather History Graph

Search for Another Location

Airport:

Trip Planner

Search our weather history database for the weather conditions in past years. The results will help you decide how hot, cold, wet, or windy it might be!

Date:

Astronomy

Nov. 29, 2013 Rise Set
Actual Time 7:00 AM MST 4:40 PM MST
Civil Twilight 6:30 AM MST 5:09 PM MST
Nautical Twilight 5:57 AM MST 5:42 PM MST
Astronomical Twilight 5:25 AM MST 6:15 PM MST
Moon 3:10 AM MST (11/29) 2:25 PM MST (11/29)
Length of Visible Light 10h 38m
Length of Day
9h 40m
Waning Crescent, 13% of the Moon is Illuminated
Nov 29
Waning Crescent
Dec 2
New
Dec 9
First Quarter
Dec 17
Full
Dec 25
Last Quarter

Hourly Weather History & Observations

Time (MST) Temp. Windchill Dew Point Humidity Pressure Visibility Wind Dir Wind Speed Gust Speed Precip Events Conditions
12:01 AM 26.6 °F 17.5 °F 6.8 °F 43% 30.29 in 10.0 mi WSW 9.2 mph - N/A   Clear
12:21 AM 26.6 °F 17.5 °F 6.8 °F 43% 30.28 in 10.0 mi WSW 9.2 mph 17.3 mph N/A   Clear
12:41 AM 26.6 °F 17.5 °F 6.8 °F 43% 30.28 in 10.0 mi WSW 9.2 mph - N/A   Clear
1:01 AM 26.6 °F 16.8 °F 6.8 °F 43% 30.28 in 10.0 mi WSW 10.4 mph 18.4 mph N/A   Clear
1:21 AM 24.8 °F 15.3 °F 8.6 °F 50% 30.28 in 10.0 mi SW 9.2 mph - N/A   Scattered Clouds
1:41 AM 24.8 °F 15.3 °F 8.6 °F 50% 30.28 in 10.0 mi WSW 9.2 mph - N/A   Clear
2:01 AM 24.8 °F 14.0 °F 8.6 °F 50% 30.28 in 10.0 mi WSW 11.5 mph 17.3 mph N/A   Clear
2:21 AM 23.0 °F 12.4 °F 8.6 °F 54% 30.28 in 10.0 mi WSW 10.4 mph 19.6 mph N/A   Scattered Clouds
2:41 AM 24.8 °F 14.0 °F 8.6 °F 50% 30.28 in 10.0 mi WSW 11.5 mph 21.9 mph N/A   Clear
3:01 AM 24.8 °F 15.3 °F 8.6 °F 50% 30.28 in 10.0 mi WSW 9.2 mph 17.3 mph N/A   Clear
3:21 AM 23.0 °F 13.9 °F 8.6 °F 54% 30.28 in 10.0 mi WSW 8.1 mph 18.4 mph N/A   Clear
3:41 AM 23.0 °F 13.1 °F 8.6 °F 54% 30.28 in 10.0 mi WSW 9.2 mph 17.3 mph N/A   Clear
4:01 AM 23.0 °F 13.1 °F 8.6 °F 54% 30.27 in 10.0 mi WSW 9.2 mph 17.3 mph N/A   Clear
4:21 AM 23.0 °F 12.4 °F 8.6 °F 54% 30.27 in 10.0 mi WSW 10.4 mph 18.4 mph N/A   Clear
4:41 AM 23.0 °F 11.7 °F 8.6 °F 54% 30.27 in 10.0 mi WSW 11.5 mph 19.6 mph N/A   Scattered Clouds
5:00 AM 23.0 °F 12.4 °F 8.6 °F 54% 30.27 in 10.0 mi WSW 10.4 mph 19.6 mph N/A   Clear
5:21 AM 23.0 °F 12.4 °F 8.6 °F 54% 30.27 in 10.0 mi West 10.4 mph 21.9 mph N/A   Clear
5:41 AM 21.2 °F 8.9 °F 8.6 °F 58% 30.27 in 10.0 mi West 12.7 mph 23.0 mph N/A   Clear
6:01 AM 23.0 °F 11.7 °F 8.6 °F 54% 30.28 in 10.0 mi West 11.5 mph 19.6 mph N/A   Clear
6:21 AM 21.2 °F 9.5 °F 8.6 °F 58% 30.28 in 10.0 mi West 11.5 mph 18.4 mph N/A   Clear
6:41 AM 23.0 °F 10.6 °F 6.8 °F 50% 30.28 in 10.0 mi West 13.8 mph 23.0 mph N/A   Clear
7:01 AM 23.0 °F 11.1 °F 6.8 °F 50% 30.28 in 10.0 mi West 12.7 mph 21.9 mph N/A   Clear
7:21 AM 23.0 °F 10.6 °F 6.8 °F 50% 30.28 in 10.0 mi West 13.8 mph 23.0 mph N/A   Clear
7:41 AM 23.0 °F 10.1 °F 6.8 °F 50% 30.28 in 10.0 mi West 15.0 mph 21.9 mph N/A   Clear
8:01 AM 24.8 °F 12.9 °F 5.0 °F 43% 30.30 in 10.0 mi West 13.8 mph 26.5 mph N/A   Clear
8:21 AM 24.8 °F 13.4 °F 5.0 °F 43% 30.30 in 10.0 mi West 12.7 mph 20.7 mph N/A   Clear
8:41 AM 26.6 °F 15.7 °F 5.0 °F 40% 30.30 in 10.0 mi West 12.7 mph 23.0 mph N/A   Clear
9:00 AM 26.6 °F 15.7 °F 5.0 °F 40% 30.31 in 10.0 mi West 12.7 mph 19.6 mph N/A   Clear
9:21 AM 26.6 °F 16.2 °F 6.8 °F 43% 30.32 in 10.0 mi West 11.5 mph 19.6 mph N/A   Clear
9:40 AM 28.4 °F 19.7 °F 6.8 °F 40% 30.33 in 10.0 mi WNW 9.2 mph 18.4 mph N/A   Clear
10:01 AM 28.4 °F 19.7 °F 6.8 °F 40% 30.33 in 10.0 mi NW 9.2 mph 16.1 mph N/A   Clear
10:20 AM 30.2 °F 23.4 °F 6.8 °F 37% 30.33 in 10.0 mi NW 6.9 mph - N/A   Clear
10:41 AM 30.2 °F 21.9 °F 6.8 °F 37% 30.33 in 10.0 mi NW 9.2 mph - N/A   Clear
11:01 AM 30.2 °F 21.9 °F 8.6 °F 40% 30.32 in 10.0 mi West 9.2 mph - N/A   Clear
11:21 AM 30.2 °F 21.9 °F 10.4 °F 44% 30.32 in 10.0 mi WNW 9.2 mph - N/A   Clear
11:41 AM 32.0 °F 25.6 °F 8.6 °F 38% 30.31 in 10.0 mi WNW 6.9 mph - N/A   Clear
12:01 PM 32.0 °F 24.2 °F 8.6 °F 38% 30.31 in 10.0 mi West 9.2 mph - N/A   Clear
12:21 PM 32.0 °F 25.6 °F 8.6 °F 38% 30.31 in 10.0 mi West 6.9 mph - N/A   Clear
12:41 PM 32.0 °F 26.4 °F 8.6 °F 38% 30.31 in 10.0 mi West 5.8 mph - N/A   Clear
1:00 PM 32.0 °F 25.6 °F 8.6 °F 38% 30.31 in 10.0 mi West 6.9 mph - N/A   Clear
1:21 PM 32.0 °F 24.8 °F 8.6 °F 38% 30.31 in 10.0 mi West 8.1 mph - N/A   Clear
1:41 PM 32.0 °F 24.8 °F 8.6 °F 38% 30.31 in 10.0 mi West 8.1 mph - N/A   Clear
2:01 PM 32.0 °F 25.6 °F 8.6 °F 38% 30.31 in 10.0 mi West 6.9 mph - N/A   Clear
2:21 PM 32.0 °F 25.6 °F 8.6 °F 38% 30.31 in 10.0 mi West 6.9 mph - N/A   Clear
2:40 PM 32.0 °F 25.6 °F 8.6 °F 38% 30.31 in 10.0 mi West 6.9 mph - N/A   Clear
3:01 PM 32.0 °F 24.8 °F 8.6 °F 38% 30.31 in 10.0 mi West 8.1 mph 16.1 mph N/A   Clear
3:20 PM 32.0 °F 24.2 °F 8.6 °F 38% 30.31 in 10.0 mi West 9.2 mph - N/A   Clear
3:41 PM 32.0 °F 24.8 °F 8.6 °F 38% 30.32 in 10.0 mi West 8.1 mph - N/A   Clear
4:01 PM 30.2 °F 22.6 °F 8.6 °F 40% 30.33 in 10.0 mi West 8.1 mph - N/A   Clear
4:21 PM 30.2 °F 23.4 °F 8.6 °F 40% 30.33 in 10.0 mi West 6.9 mph - N/A   Clear
4:41 PM 28.4 °F 20.4 °F 10.4 °F 47% 30.33 in 10.0 mi WNW 8.1 mph - N/A   Clear
5:01 PM 28.4 °F 20.4 °F 8.6 °F 43% 30.33 in 10.0 mi WNW 8.1 mph - N/A   Clear
5:21 PM 28.4 °F 20.4 °F 8.6 °F 43% 30.33 in 10.0 mi WNW 8.1 mph - N/A   Clear
5:41 PM 28.4 °F 20.4 °F 8.6 °F 43% 30.33 in 10.0 mi WNW 8.1 mph - N/A   Clear
6:01 PM 28.4 °F 20.4 °F 8.6 °F 43% 30.34 in 10.0 mi WNW 8.1 mph - N/A   Clear
6:21 PM 28.4 °F 21.2 °F 8.6 °F 43% 30.35 in 10.0 mi West 6.9 mph 16.1 mph N/A   Clear
6:40 PM 28.4 °F 20.4 °F 10.4 °F 47% 30.34 in 10.0 mi West 8.1 mph 17.3 mph N/A   Clear
7:00 PM 26.6 °F 17.5 °F 10.4 °F 51% 30.35 in 10.0 mi West 9.2 mph 17.3 mph N/A   Clear
7:21 PM 26.6 °F 20.0 °F 10.4 °F 51% 30.35 in 10.0 mi WSW 5.8 mph - N/A   Clear
7:41 PM 26.6 °F 19.1 °F 10.4 °F 51% 30.35 in 10.0 mi WSW 6.9 mph - N/A   Clear
8:00 PM 26.6 °F 18.2 °F 10.4 °F 51% 30.35 in 10.0 mi West 8.1 mph - N/A   Clear
8:21 PM 26.6 °F 17.5 °F 10.4 °F 51% 30.35 in 10.0 mi West 9.2 mph - N/A   Clear
8:41 PM 26.6 °F 18.2 °F 8.6 °F 47% 30.35 in 10.0 mi West 8.1 mph - N/A   Clear
9:01 PM 24.8 °F 16.9 °F 8.6 °F 50% 30.35 in 10.0 mi WSW 6.9 mph - N/A   Clear
9:21 PM 24.8 °F 15.3 °F 10.4 °F 54% 30.35 in 10.0 mi West 9.2 mph - N/A   Clear
9:41 PM 24.8 °F 16.1 °F 10.4 °F 54% 30.35 in 10.0 mi West 8.1 mph 17.3 mph N/A   Clear
10:01 PM 24.8 °F 14.6 °F 8.6 °F 50% 30.35 in 10.0 mi WNW 10.4 mph 16.1 mph N/A   Clear
10:20 PM 23.0 °F 12.4 °F 10.4 °F 59% 30.33 in 10.0 mi West 10.4 mph 17.3 mph N/A   Clear
10:41 PM 23.0 °F 11.7 °F 10.4 °F 59% 30.33 in 10.0 mi West 11.5 mph 18.4 mph N/A   Clear
11:00 PM 23.0 °F 11.7 °F 8.6 °F 54% 30.33 in 10.0 mi West 11.5 mph 19.6 mph N/A   Clear
11:21 PM 23.0 °F 12.4 °F 10.4 °F 59% 30.33 in 10.0 mi West 10.4 mph 18.4 mph N/A   Scattered Clouds
11:41 PM 23.0 °F 11.7 °F 10.4 °F 59% 30.33 in 10.0 mi West 11.5 mph 18.4 mph N/A   Scattered Clouds